sensor_id;sensor_type;location;lat;lon;timestamp;temperature;humidity
11320;DHT22;5715;48.234;14.320;2022-10-16T00:02:39;11.60;99.90
11320;DHT22;5715;48.234;14.320;2022-10-16T00:05:27;11.70;99.90
11320;DHT22;5715;48.234;14.320;2022-10-16T00:08:15;11.80;99.90
11320;DHT22;5715;48.234;14.320;2022-10-16T00:11:05;11.80;99.90
11320;DHT22;5715;48.234;14.320;2022-10-16T00:14:02;11.80;99.90
11320;DHT22;5715;48.234;14.320;2022-10-16T00:16:51;11.80;99.90
11320;DHT22;5715;48.234;14.320;2022-10-16T00:19:39;11.80;99.90
11320;DHT22;5715;48.234;14.320;2022-10-16T00:22:26;11.70;99.90
11320;DHT22;5715;48.234;14.320;2022-10-16T00:25:14;11.70;99.90
11320;DHT22;5715;48.234;14.320;2022-10-16T00:28:02;11.80;99.90
11320;DHT22;5715;48.234;14.320;2022-10-16T00:30:50;11.80;99.90
11320;DHT22;5715;48.234;14.320;2022-10-16T00:33:38;11.80;99.90
11320;DHT22;5715;48.234;14.320;2022-10-16T00:36:27;11.80;99.90
11320;DHT22;5715;48.234;14.320;2022-10-16T00:39:15;11.80;99.90
11320;DHT22;5715;48.234;14.320;2022-10-16T00:42:02;11.80;99.90
11320;DHT22;5715;48.234;14.320;2022-10-16T00:44:55;11.80;99.90
11320;DHT22;5715;48.234;14.320;2022-10-16T00:47:46;11.80;99.90
11320;DHT22;5715;48.234;14.320;2022-10-16T00:50:36;11.80;99.90
11320;DHT22;5715;48.234;14.320;2022-10-16T00:53:25;11.70;99.90
11320;DHT22;5715;48.234;14.320;2022-10-16T00:56:13;11.70;99.90
11320;DHT22;5715;48.234;14.320;2022-10-16T00:59:04;11.70;99.90
11320;DHT22;5715;48.234;14.320;2022-10-16T01:01:59;11.70;99.90
11320;DHT22;5715;48.234;14.320;2022-10-16T01:04:50;11.70;99.90
11320;DHT22;5715;48.234;14.320;2022-10-16T01:07:53;11.70;99.90
11320;DHT22;5715;48.234;14.320;2022-10-16T01:11:17;11.70;99.90
11320;DHT22;5715;48.234;14.320;2022-10-16T01:18:06;11.70;99.90
11320;DHT22;5715;48.234;14.320;2022-10-16T01:21:10;11.60;99.90
11320;DHT22;5715;48.234;14.320;2022-10-16T01:24:41;11.60;99.90
11320;DHT22;5715;48.234;14.320;2022-10-16T01:27:40;11.60;99.90
11320;DHT22;5715;48.234;14.320;2022-10-16T01:30:33;11.60;99.90
11320;DHT22;5715;48.234;14.320;2022-10-16T01:33:38;11.60;99.90
11320;DHT22;5715;48.234;14.320;2022-10-16T01:36:59;11.50;99.90
11320;DHT22;5715;48.234;14.320;2022-10-16T01:39:55;11.50;99.90
11320;DHT22;5715;48.234;14.320;2022-10-16T01:42:53;11.40;99.90
11320;DHT22;5715;48.234;14.320;2022-10-16T01:45:46;11.40;99.90
11320;DHT22;5715;48.234;14.320;2022-10-16T01:48:35;11.50;99.90
11320;DHT22;5715;48.234;14.320;2022-10-16T01:51:24;11.40;99.90
11320;DHT22;5715;48.234;14.320;2022-10-16T01:54:15;11.50;99.90
11320;DHT22;5715;48.234;14.320;2022-10-16T01:57:07;11.50;99.90
11320;DHT22;5715;48.234;14.320;2022-10-16T02:00:01;11.50;99.90
11320;DHT22;5715;48.234;14.320;2022-10-16T02:02:55;11.60;99.90
11320;DHT22;5715;48.234;14.320;2022-10-16T02:05:55;11.60;99.90
11320;DHT22;5715;48.234;14.320;2022-10-16T02:08:45;11.70;99.90
11320;DHT22;5715;48.234;14.320;2022-10-16T02:11:33;11.80;99.90
11320;DHT22;5715;48.234;14.320;2022-10-16T02:14:21;11.80;99.90
11320;DHT22;5715;48.234;14.320;2022-10-16T02:17:13;11.80;99.90
11320;DHT22;5715;48.234;14.320;2022-10-16T02:20:04;11.90;99.90
11320;DHT22;5715;48.234;14.320;2022-10-16T02:22:53;11.90;99.90
11320;DHT22;5715;48.234;14.320;2022-10-16T02:25:44;11.90;99.90
11320;DHT22;5715;48.234;14.320;2022-10-16T02:28:41;11.90;99.90
11320;DHT22;5715;48.234;14.320;2022-10-16T02:31:36;12.00;99.90
11320;DHT22;5715;48.234;14.320;2022-10-16T02:34:30;11.90;99.90
11320;DHT22;5715;48.234;14.320;2022-10-16T02:37:20;12.00;99.90
11320;DHT22;5715;48.234;14.320;2022-10-16T02:40:08;12.10;99.90
11320;DHT22;5715;48.234;14.320;2022-10-16T02:42:57;12.20;99.90
11320;DHT22;5715;48.234;14.320;2022-10-16T02:45:44;12.30;99.90
11320;DHT22;5715;48.234;14.320;2022-10-16T02:48:32;12.40;99.90
11320;DHT22;5715;48.234;14.320;2022-10-16T02:51:19;12.40;99.90
11320;DHT22;5715;48.234;14.320;2022-10-16T02:54:07;12.40;99.90
11320;DHT22;5715;48.234;14.320;2022-10-16T02:56:55;12.50;99.90
11320;DHT22;5715;48.234;14.320;2022-10-16T02:59:42;12.50;99.90
11320;DHT22;5715;48.234;14.320;2022-10-16T03:02:30;12.60;99.90
11320;DHT22;5715;48.234;14.320;2022-10-16T03:05:18;12.60;99.90
11320;DHT22;5715;48.234;14.320;2022-10-16T03:08:05;12.60;99.90
11320;DHT22;5715;48.234;14.320;2022-10-16T03:10:53;12.60;99.90
11320;DHT22;5715;48.234;14.320;2022-10-16T03:13:40;12.60;99.90
11320;DHT22;5715;48.234;14.320;2022-10-16T03:16:28;12.60;99.90
11320;DHT22;5715;48.234;14.320;2022-10-16T03:19:16;12.60;99.90
11320;DHT22;5715;48.234;14.320;2022-10-16T03:22:05;12.60;99.90
11320;DHT22;5715;48.234;14.320;2022-10-16T03:24:52;12.60;99.90
11320;DHT22;5715;48.234;14.320;2022-10-16T03:27:40;12.60;99.90
11320;DHT22;5715;48.234;14.320;2022-10-16T03:30:27;12.60;99.90
11320;DHT22;5715;48.234;14.320;2022-10-16T03:33:15;12.60;99.90
11320;DHT22;5715;48.234;14.320;2022-10-16T03:36:02;12.50;99.90
11320;DHT22;5715;48.234;14.320;2022-10-16T03:38:50;12.60;99.90
11320;DHT22;5715;48.234;14.320;2022-10-16T03:41:38;12.60;99.90
11320;DHT22;5715;48.234;14.320;2022-10-16T03:44:25;12.50;99.90
11320;DHT22;5715;48.234;14.320;2022-10-16T03:47:12;12.50;99.90
11320;DHT22;5715;48.234;14.320;2022-10-16T03:50:00;12.50;99.90
11320;DHT22;5715;48.234;14.320;2022-10-16T03:52:48;12.40;99.90
11320;DHT22;5715;48.234;14.320;2022-10-16T03:55:35;12.40;99.90
11320;DHT22;5715;48.234;14.320;2022-10-16T03:58:23;12.40;99.90
11320;DHT22;5715;48.234;14.320;2022-10-16T04:01:11;12.30;99.90
11320;DHT22;5715;48.234;14.320;2022-10-16T04:03:58;12.30;99.90
11320;DHT22;5715;48.234;14.320;2022-10-16T04:06:46;12.30;99.90
11320;DHT22;5715;48.234;14.320;2022-10-16T04:09:33;12.30;99.90
11320;DHT22;5715;48.234;14.320;2022-10-16T04:12:21;12.20;99.90
11320;DHT22;5715;48.234;14.320;2022-10-16T04:15:08;12.20;99.90
11320;DHT22;5715;48.234;14.320;2022-10-16T04:17:57;12.20;99.90
11320;DHT22;5715;48.234;14.320;2022-10-16T04:20:44;12.20;99.90
11320;DHT22;5715;48.234;14.320;2022-10-16T04:23:32;12.20;99.90
11320;DHT22;5715;48.234;14.320;2022-10-16T04:26:19;12.20;99.90
11320;DHT22;5715;48.234;14.320;2022-10-16T04:29:07;12.20;99.90
11320;DHT22;5715;48.234;14.320;2022-10-16T04:31:55;12.20;99.90
11320;DHT22;5715;48.234;14.320;2022-10-16T04:34:42;12.20;99.90
11320;DHT22;5715;48.234;14.320;2022-10-16T04:37:30;12.20;99.90
11320;DHT22;5715;48.234;14.320;2022-10-16T04:40:17;12.20;99.90
11320;DHT22;5715;48.234;14.320;2022-10-16T04:43:05;12.20;99.90
11320;DHT22;5715;48.234;14.320;2022-10-16T04:45:53;12.20;99.90
11320;DHT22;5715;48.234;14.320;2022-10-16T04:48:41;12.30;99.90
11320;DHT22;5715;48.234;14.320;2022-10-16T04:51:29;12.30;99.90
11320;DHT22;5715;48.234;14.320;2022-10-16T04:54:17;12.30;99.90
11320;DHT22;5715;48.234;14.320;2022-10-16T04:57:04;12.30;99.90
11320;DHT22;5715;48.234;14.320;2022-10-16T04:59:52;12.20;99.90
11320;DHT22;5715;48.234;14.320;2022-10-16T05:02:40;12.20;99.90
11320;DHT22;5715;48.234;14.320;2022-10-16T05:05:28;12.10;99.90
11320;DHT22;5715;48.234;14.320;2022-10-16T05:08:15;12.10;99.90
11320;DHT22;5715;48.234;14.320;2022-10-16T05:11:03;12.20;99.90
11320;DHT22;5715;48.234;14.320;2022-10-16T05:13:51;12.20;99.90
11320;DHT22;5715;48.234;14.320;2022-10-16T05:16:41;12.20;99.90
11320;DHT22;5715;48.234;14.320;2022-10-16T05:19:29;12.20;99.90
11320;DHT22;5715;48.234;14.320;2022-10-16T05:22:17;12.20;99.90
11320;DHT22;5715;48.234;14.320;2022-10-16T05:25:04;12.20;99.90
11320;DHT22;5715;48.234;14.320;2022-10-16T05:27:52;12.20;99.90
11320;DHT22;5715;48.234;14.320;2022-10-16T05:30:40;12.20;99.90
11320;DHT22;5715;48.234;14.320;2022-10-16T05:33:27;12.30;99.90
11320;DHT22;5715;48.234;14.320;2022-10-16T05:36:14;12.30;99.90
11320;DHT22;5715;48.234;14.320;2022-10-16T05:39:02;12.30;99.90
11320;DHT22;5715;48.234;14.320;2022-10-16T05:41:50;12.30;99.90
11320;DHT22;5715;48.234;14.320;2022-10-16T05:44:38;12.30;99.90
11320;DHT22;5715;48.234;14.320;2022-10-16T05:47:25;12.30;99.90
11320;DHT22;5715;48.234;14.320;2022-10-16T05:50:13;12.20;99.90
11320;DHT22;5715;48.234;14.320;2022-10-16T05:53:01;12.20;99.90
11320;DHT22;5715;48.234;14.320;2022-10-16T05:55:52;12.20;99.90
11320;DHT22;5715;48.234;14.320;2022-10-16T05:58:41;12.10;99.90
11320;DHT22;5715;48.234;14.320;2022-10-16T06:01:29;12.10;99.90
11320;DHT22;5715;48.234;14.320;2022-10-16T06:04:18;12.10;99.90
11320;DHT22;5715;48.234;14.320;2022-10-16T06:07:05;12.10;99.90
11320;DHT22;5715;48.234;14.320;2022-10-16T06:09:53;12.20;99.90
11320;DHT22;5715;48.234;14.320;2022-10-16T06:12:40;12.20;99.90
11320;DHT22;5715;48.234;14.320;2022-10-16T06:15:28;12.30;99.90
11320;DHT22;5715;48.234;14.320;2022-10-16T06:18:16;12.30;99.90
11320;DHT22;5715;48.234;14.320;2022-10-16T06:21:12;12.40;99.90
11320;DHT22;5715;48.234;14.320;2022-10-16T06:24:11;12.50;99.90
11320;DHT22;5715;48.234;14.320;2022-10-16T06:26:59;12.70;99.90
11320;DHT22;5715;48.234;14.320;2022-10-16T06:29:46;12.90;99.90
11320;DHT22;5715;48.234;14.320;2022-10-16T06:32:34;12.90;99.90
11320;DHT22;5715;48.234;14.320;2022-10-16T06:35:21;13.00;99.90
11320;DHT22;5715;48.234;14.320;2022-10-16T06:38:09;13.00;99.90
11320;DHT22;5715;48.234;14.320;2022-10-16T06:40:56;13.00;99.90
11320;DHT22;5715;48.234;14.320;2022-10-16T06:43:45;12.90;99.90
11320;DHT22;5715;48.234;14.320;2022-10-16T06:46:32;12.90;99.90
11320;DHT22;5715;48.234;14.320;2022-10-16T06:49:21;13.00;99.90
11320;DHT22;5715;48.234;14.320;2022-10-16T06:52:09;13.10;99.90
11320;DHT22;5715;48.234;14.320;2022-10-16T06:54:56;13.20;99.90
11320;DHT22;5715;48.234;14.320;2022-10-16T06:57:47;13.30;99.90
11320;DHT22;5715;48.234;14.320;2022-10-16T07:00:35;13.40;99.90
11320;DHT22;5715;48.234;14.320;2022-10-16T07:03:22;13.40;99.90
11320;DHT22;5715;48.234;14.320;2022-10-16T07:06:13;13.40;99.90
11320;DHT22;5715;48.234;14.320;2022-10-16T07:09:05;13.60;99.90
11320;DHT22;5715;48.234;14.320;2022-10-16T07:11:55;13.60;99.90
11320;DHT22;5715;48.234;14.320;2022-10-16T07:14:43;13.80;99.90
11320;DHT22;5715;48.234;14.320;2022-10-16T07:17:30;13.90;99.90
11320;DHT22;5715;48.234;14.320;2022-10-16T07:20:18;14.10;99.90
11320;DHT22;5715;48.234;14.320;2022-10-16T07:23:06;14.20;99.90
11320;DHT22;5715;48.234;14.320;2022-10-16T07:25:54;14.30;99.90
11320;DHT22;5715;48.234;14.320;2022-10-16T07:28:43;14.30;99.90
11320;DHT22;5715;48.234;14.320;2022-10-16T07:31:30;14.40;99.90
11320;DHT22;5715;48.234;14.320;2022-10-16T07:34:19;14.40;99.90
11320;DHT22;5715;48.234;14.320;2022-10-16T07:37:08;14.50;99.90
11320;DHT22;5715;48.234;14.320;2022-10-16T07:39:56;14.80;99.90
11320;DHT22;5715;48.234;14.320;2022-10-16T07:42:43;15.10;99.90
11320;DHT22;5715;48.234;14.320;2022-10-16T07:45:31;15.20;99.90
11320;DHT22;5715;48.234;14.320;2022-10-16T07:48:18;15.50;99.90
11320;DHT22;5715;48.234;14.320;2022-10-16T07:51:07;15.70;99.90
11320;DHT22;5715;48.234;14.320;2022-10-16T07:53:56;16.00;99.90
11320;DHT22;5715;48.234;14.320;2022-10-16T07:56:43;16.10;99.90
11320;DHT22;5715;48.234;14.320;2022-10-16T07:59:31;16.20;99.90
11320;DHT22;5715;48.234;14.320;2022-10-16T08:02:18;16.50;99.90
11320;DHT22;5715;48.234;14.320;2022-10-16T08:05:06;16.70;99.90
11320;DHT22;5715;48.234;14.320;2022-10-16T08:07:55;16.70;99.90
11320;DHT22;5715;48.234;14.320;2022-10-16T08:10:44;16.50;99.90
11320;DHT22;5715;48.234;14.320;2022-10-16T08:13:32;16.40;99.90
11320;DHT22;5715;48.234;14.320;2022-10-16T08:16:20;16.50;99.90
11320;DHT22;5715;48.234;14.320;2022-10-16T08:19:08;16.60;99.90
11320;DHT22;5715;48.234;14.320;2022-10-16T08:21:56;16.70;99.90
11320;DHT22;5715;48.234;14.320;2022-10-16T08:24:43;16.80;99.90
11320;DHT22;5715;48.234;14.320;2022-10-16T08:27:32;17.00;99.90
11320;DHT22;5715;48.234;14.320;2022-10-16T08:30:21;17.10;99.90
11320;DHT22;5715;48.234;14.320;2022-10-16T08:33:10;17.10;99.90
11320;DHT22;5715;48.234;14.320;2022-10-16T08:35:57;17.10;99.90
11320;DHT22;5715;48.234;14.320;2022-10-16T08:38:48;17.20;99.90
11320;DHT22;5715;48.234;14.320;2022-10-16T08:42:07;17.30;99.90
11320;DHT22;5715;48.234;14.320;2022-10-16T08:48:48;17.70;99.90
11320;DHT22;5715;48.234;14.320;2022-10-16T08:51:38;17.80;99.90
11320;DHT22;5715;48.234;14.320;2022-10-16T08:54:37;17.70;99.90
11320;DHT22;5715;48.234;14.320;2022-10-16T08:57:33;17.70;99.90
11320;DHT22;5715;48.234;14.320;2022-10-16T09:00:21;17.60;99.90
11320;DHT22;5715;48.234;14.320;2022-10-16T09:06:56;17.60;99.90
11320;DHT22;5715;48.234;14.320;2022-10-16T09:10:13;17.70;99.90
11320;DHT22;5715;48.234;14.320;2022-10-16T09:13:28;17.70;99.90
11320;DHT22;5715;48.234;14.320;2022-10-16T09:16:34;17.70;99.90
11320;DHT22;5715;48.234;14.320;2022-10-16T09:19:40;17.70;99.90
11320;DHT22;5715;48.234;14.320;2022-10-16T09:23:25;17.70;99.90
11320;DHT22;5715;48.234;14.320;2022-10-16T09:26:15;18.00;99.90
11320;DHT22;5715;48.234;14.320;2022-10-16T09:29:05;18.40;99.90
11320;DHT22;5715;48.234;14.320;2022-10-16T09:31:55;18.50;99.90
11320;DHT22;5715;48.234;14.320;2022-10-16T09:34:55;18.70;99.90
11320;DHT22;5715;48.234;14.320;2022-10-16T09:37:47;18.80;99.90
11320;DHT22;5715;48.234;14.320;2022-10-16T09:40:38;18.80;99.90
11320;DHT22;5715;48.234;14.320;2022-10-16T09:43:54;18.90;99.90
11320;DHT22;5715;48.234;14.320;2022-10-16T09:46:44;19.10;99.90
11320;DHT22;5715;48.234;14.320;2022-10-16T09:49:32;19.30;99.90
11320;DHT22;5715;48.234;14.320;2022-10-16T09:52:19;19.50;99.90
11320;DHT22;5715;48.234;14.320;2022-10-16T09:55:17;19.60;99.90
11320;DHT22;5715;48.234;14.320;2022-10-16T09:58:13;19.80;99.90
11320;DHT22;5715;48.234;14.320;2022-10-16T10:01:00;19.90;99.90
11320;DHT22;5715;48.234;14.320;2022-10-16T10:03:48;19.90;99.90
11320;DHT22;5715;48.234;14.320;2022-10-16T10:06:57;20.10;99.90
11320;DHT22;5715;48.234;14.320;2022-10-16T10:09:45;20.30;99.90
11320;DHT22;5715;48.234;14.320;2022-10-16T10:12:33;20.60;99.90
11320;DHT22;5715;48.234;14.320;2022-10-16T10:15:34;20.80;99.90
11320;DHT22;5715;48.234;14.320;2022-10-16T10:18:29;21.00;99.90
11320;DHT22;5715;48.234;14.320;2022-10-16T10:21:18;21.20;99.90
11320;DHT22;5715;48.234;14.320;2022-10-16T10:24:13;21.30;99.90
11320;DHT22;5715;48.234;14.320;2022-10-16T10:27:13;21.50;99.90
11320;DHT22;5715;48.234;14.320;2022-10-16T10:30:20;21.50;99.90
11320;DHT22;5715;48.234;14.320;2022-10-16T10:36:37;21.80;99.90
11320;DHT22;5715;48.234;14.320;2022-10-16T10:39:49;21.90;99.90
11320;DHT22;5715;48.234;14.320;2022-10-16T10:43:04;21.70;99.90
11320;DHT22;5715;48.234;14.320;2022-10-16T10:46:08;21.60;99.90
11320;DHT22;5715;48.234;14.320;2022-10-16T10:53:21;21.30;99.90
11320;DHT22;5715;48.234;14.320;2022-10-16T11:09:22;21.30;99.90
11320;DHT22;5715;48.234;14.320;2022-10-16T11:12:18;21.40;99.90
11320;DHT22;5715;48.234;14.320;2022-10-16T11:15:15;21.40;99.90
11320;DHT22;5715;48.234;14.320;2022-10-16T11:18:21;21.40;99.90
11320;DHT22;5715;48.234;14.320;2022-10-16T11:21:15;21.50;99.90
11320;DHT22;5715;48.234;14.320;2022-10-16T11:27:33;21.80;99.90
11320;DHT22;5715;48.234;14.320;2022-10-16T11:30:27;22.00;99.90
11320;DHT22;5715;48.234;14.320;2022-10-16T11:36:40;22.30;99.90
11320;DHT22;5715;48.234;14.320;2022-10-16T11:39:32;22.40;99.90
11320;DHT22;5715;48.234;14.320;2022-10-16T11:42:32;22.40;99.90
11320;DHT22;5715;48.234;14.320;2022-10-16T11:45:46;22.20;99.90
11320;DHT22;5715;48.234;14.320;2022-10-16T11:48:48;22.00;99.90
11320;DHT22;5715;48.234;14.320;2022-10-16T11:55:20;21.50;99.90
11320;DHT22;5715;48.234;14.320;2022-10-16T12:01:30;21.80;99.90
11320;DHT22;5715;48.234;14.320;2022-10-16T12:04:45;21.90;99.90
11320;DHT22;5715;48.234;14.320;2022-10-16T12:20:28;22.20;99.90
11320;DHT22;5715;48.234;14.320;2022-10-16T12:23:20;22.40;99.90
11320;DHT22;5715;48.234;14.320;2022-10-16T12:26:12;22.40;99.90
11320;DHT22;5715;48.234;14.320;2022-10-16T12:29:13;22.40;99.90
11320;DHT22;5715;48.234;14.320;2022-10-16T12:32:41;22.40;99.90
11320;DHT22;5715;48.234;14.320;2022-10-16T12:35:42;22.50;99.90
11320;DHT22;5715;48.234;14.320;2022-10-16T12:38:47;22.40;99.90
11320;DHT22;5715;48.234;14.320;2022-10-16T12:41:36;22.30;99.90
11320;DHT22;5715;48.234;14.320;2022-10-16T12:44:32;22.30;99.90
11320;DHT22;5715;48.234;14.320;2022-10-16T12:47:37;22.30;99.90
11320;DHT22;5715;48.234;14.320;2022-10-16T12:50:37;22.30;99.90
11320;DHT22;5715;48.234;14.320;2022-10-16T12:53:27;22.40;99.90
11320;DHT22;5715;48.234;14.320;2022-10-16T12:56:27;22.40;99.90
11320;DHT22;5715;48.234;14.320;2022-10-16T13:02:36;22.40;99.90
11320;DHT22;5715;48.234;14.320;2022-10-16T13:06:02;22.50;99.90
11320;DHT22;5715;48.234;14.320;2022-10-16T13:12:39;22.40;99.90
11320;DHT22;5715;48.234;14.320;2022-10-16T13:16:12;22.50;99.90
11320;DHT22;5715;48.234;14.320;2022-10-16T13:19:21;22.50;99.90
11320;DHT22;5715;48.234;14.320;2022-10-16T13:25:43;22.50;99.90
11320;DHT22;5715;48.234;14.320;2022-10-16T13:28:41;22.50;99.90
11320;DHT22;5715;48.234;14.320;2022-10-16T13:31:30;22.60;99.90
11320;DHT22;5715;48.234;14.320;2022-10-16T13:34:21;22.70;99.90
11320;DHT22;5715;48.234;14.320;2022-10-16T13:37:24;22.80;99.90
11320;DHT22;5715;48.234;14.320;2022-10-16T13:40:22;22.80;99.90
11320;DHT22;5715;48.234;14.320;2022-10-16T13:43:11;22.70;99.90
11320;DHT22;5715;48.234;14.320;2022-10-16T13:46:04;22.60;99.90
11320;DHT22;5715;48.234;14.320;2022-10-16T13:52:01;22.70;99.90
11320;DHT22;5715;48.234;14.320;2022-10-16T13:54:48;22.70;99.90
11320;DHT22;5715;48.234;14.320;2022-10-16T13:57:36;22.70;99.90
11320;DHT22;5715;48.234;14.320;2022-10-16T14:00:25;22.60;99.90
11320;DHT22;5715;48.234;14.320;2022-10-16T14:03:17;22.60;99.90
11320;DHT22;5715;48.234;14.320;2022-10-16T14:06:15;22.60;99.90
11320;DHT22;5715;48.234;14.320;2022-10-16T14:12:15;22.50;99.90
11320;DHT22;5715;48.234;14.320;2022-10-16T14:15:03;22.50;99.90
11320;DHT22;5715;48.234;14.320;2022-10-16T14:17:52;22.50;99.90
11320;DHT22;5715;48.234;14.320;2022-10-16T14:20:40;22.50;99.90
11320;DHT22;5715;48.234;14.320;2022-10-16T14:23:36;22.40;99.90
11320;DHT22;5715;48.234;14.320;2022-10-16T14:26:27;22.40;99.90
11320;DHT22;5715;48.234;14.320;2022-10-16T14:29:19;22.40;99.90
11320;DHT22;5715;48.234;14.320;2022-10-16T14:32:22;22.30;99.90
11320;DHT22;5715;48.234;14.320;2022-10-16T14:35:34;22.30;99.90
11320;DHT22;5715;48.234;14.320;2022-10-16T14:38:25;22.20;99.90
11320;DHT22;5715;48.234;14.320;2022-10-16T14:41:13;22.30;99.90
11320;DHT22;5715;48.234;14.320;2022-10-16T14:44:04;22.30;99.90
11320;DHT22;5715;48.234;14.320;2022-10-16T14:46:52;22.20;99.90
11320;DHT22;5715;48.234;14.320;2022-10-16T14:49:41;22.20;99.90
11320;DHT22;5715;48.234;14.320;2022-10-16T14:52:29;22.20;99.90
11320;DHT22;5715;48.234;14.320;2022-10-16T14:55:17;22.10;99.90
11320;DHT22;5715;48.234;14.320;2022-10-16T14:58:05;22.20;99.90
11320;DHT22;5715;48.234;14.320;2022-10-16T15:00:56;22.20;99.90
11320;DHT22;5715;48.234;14.320;2022-10-16T15:03:44;22.20;99.90
11320;DHT22;5715;48.234;14.320;2022-10-16T15:06:32;22.10;99.90
11320;DHT22;5715;48.234;14.320;2022-10-16T15:09:19;22.00;99.90
11320;DHT22;5715;48.234;14.320;2022-10-16T15:12:07;22.00;99.90
11320;DHT22;5715;48.234;14.320;2022-10-16T15:14:55;21.90;99.90
11320;DHT22;5715;48.234;14.320;2022-10-16T15:17:42;21.90;99.90
11320;DHT22;5715;48.234;14.320;2022-10-16T15:20:32;21.80;99.90
11320;DHT22;5715;48.234;14.320;2022-10-16T15:23:22;21.70;99.90
11320;DHT22;5715;48.234;14.320;2022-10-16T15:26:10;21.60;99.90
11320;DHT22;5715;48.234;14.320;2022-10-16T15:28:57;21.50;99.90
11320;DHT22;5715;48.234;14.320;2022-10-16T15:31:45;21.40;99.90
11320;DHT22;5715;48.234;14.320;2022-10-16T15:34:34;21.30;99.90
11320;DHT22;5715;48.234;14.320;2022-10-16T15:37:22;21.30;99.90
11320;DHT22;5715;48.234;14.320;2022-10-16T15:40:10;21.20;99.90
11320;DHT22;5715;48.234;14.320;2022-10-16T15:42:57;21.20;99.90
11320;DHT22;5715;48.234;14.320;2022-10-16T15:45:59;21.10;99.90
11320;DHT22;5715;48.234;14.320;2022-10-16T15:48:57;21.00;99.90
11320;DHT22;5715;48.234;14.320;2022-10-16T15:51:45;20.90;99.90
11320;DHT22;5715;48.234;14.320;2022-10-16T15:54:33;20.80;99.90
11320;DHT22;5715;48.234;14.320;2022-10-16T15:57:20;20.70;99.90
11320;DHT22;5715;48.234;14.320;2022-10-16T16:00:11;20.70;99.90
11320;DHT22;5715;48.234;14.320;2022-10-16T16:03:01;20.50;99.90
11320;DHT22;5715;48.234;14.320;2022-10-16T16:05:49;20.50;99.90
11320;DHT22;5715;48.234;14.320;2022-10-16T16:08:37;20.40;99.90
11320;DHT22;5715;48.234;14.320;2022-10-16T16:11:25;20.20;99.90
11320;DHT22;5715;48.234;14.320;2022-10-16T16:14:13;20.10;99.90
11320;DHT22;5715;48.234;14.320;2022-10-16T16:17:01;20.00;99.90
11320;DHT22;5715;48.234;14.320;2022-10-16T16:19:49;19.80;99.90
11320;DHT22;5715;48.234;14.320;2022-10-16T16:22:36;19.70;99.90
11320;DHT22;5715;48.234;14.320;2022-10-16T16:25:24;19.60;99.90
11320;DHT22;5715;48.234;14.320;2022-10-16T16:28:11;19.50;99.90
11320;DHT22;5715;48.234;14.320;2022-10-16T16:31:01;19.30;99.90
11320;DHT22;5715;48.234;14.320;2022-10-16T16:33:50;19.10;99.90
11320;DHT22;5715;48.234;14.320;2022-10-16T16:36:38;18.80;99.90
11320;DHT22;5715;48.234;14.320;2022-10-16T16:39:27;18.40;99.90
11320;DHT22;5715;48.234;14.320;2022-10-16T16:42:14;18.10;99.90
11320;DHT22;5715;48.234;14.320;2022-10-16T16:45:02;17.90;99.90
11320;DHT22;5715;48.234;14.320;2022-10-16T16:47:49;17.70;99.90
11320;DHT22;5715;48.234;14.320;2022-10-16T16:50:37;17.60;99.90
11320;DHT22;5715;48.234;14.320;2022-10-16T16:53:24;17.40;99.90
11320;DHT22;5715;48.234;14.320;2022-10-16T16:56:12;17.20;99.90
11320;DHT22;5715;48.234;14.320;2022-10-16T16:59:00;17.00;99.90
11320;DHT22;5715;48.234;14.320;2022-10-16T17:01:49;16.80;99.90
11320;DHT22;5715;48.234;14.320;2022-10-16T17:04:42;16.70;99.90
11320;DHT22;5715;48.234;14.320;2022-10-16T17:07:31;16.60;99.90
11320;DHT22;5715;48.234;14.320;2022-10-16T17:10:21;16.70;99.90
11320;DHT22;5715;48.234;14.320;2022-10-16T17:13:08;16.70;99.90
11320;DHT22;5715;48.234;14.320;2022-10-16T17:15:56;16.70;99.90
11320;DHT22;5715;48.234;14.320;2022-10-16T17:18:43;16.80;99.90
11320;DHT22;5715;48.234;14.320;2022-10-16T17:21:31;16.90;99.90
11320;DHT22;5715;48.234;14.320;2022-10-16T17:24:19;16.90;99.90
11320;DHT22;5715;48.234;14.320;2022-10-16T17:27:07;16.80;99.90
11320;DHT22;5715;48.234;14.320;2022-10-16T17:29:56;16.70;99.90
11320;DHT22;5715;48.234;14.320;2022-10-16T17:32:43;16.70;99.90
11320;DHT22;5715;48.234;14.320;2022-10-16T17:35:39;16.60;99.90
11320;DHT22;5715;48.234;14.320;2022-10-16T17:38:31;16.60;99.90
11320;DHT22;5715;48.234;14.320;2022-10-16T17:41:23;16.60;99.90
11320;DHT22;5715;48.234;14.320;2022-10-16T17:44:11;16.60;99.90
11320;DHT22;5715;48.234;14.320;2022-10-16T17:47:06;16.60;99.90
11320;DHT22;5715;48.234;14.320;2022-10-16T17:49:53;16.70;99.90
11320;DHT22;5715;48.234;14.320;2022-10-16T17:52:41;16.70;99.90
11320;DHT22;5715;48.234;14.320;2022-10-16T17:55:29;16.80;99.90
11320;DHT22;5715;48.234;14.320;2022-10-16T17:58:16;16.90;99.90
11320;DHT22;5715;48.234;14.320;2022-10-16T18:01:15;16.90;99.90
11320;DHT22;5715;48.234;14.320;2022-10-16T18:04:06;16.90;99.90
11320;DHT22;5715;48.234;14.320;2022-10-16T18:06:55;16.80;99.90
11320;DHT22;5715;48.234;14.320;2022-10-16T18:09:43;16.70;99.90
11320;DHT22;5715;48.234;14.320;2022-10-16T18:12:50;16.60;99.90
11320;DHT22;5715;48.234;14.320;2022-10-16T18:15:38;16.60;99.90
11320;DHT22;5715;48.234;14.320;2022-10-16T18:18:25;16.50;99.90
11320;DHT22;5715;48.234;14.320;2022-10-16T18:21:17;16.50;99.90
11320;DHT22;5715;48.234;14.320;2022-10-16T18:24:06;16.50;99.90
11320;DHT22;5715;48.234;14.320;2022-10-16T18:26:54;16.50;99.90
11320;DHT22;5715;48.234;14.320;2022-10-16T18:29:42;16.50;99.90
11320;DHT22;5715;48.234;14.320;2022-10-16T18:32:30;16.50;99.90
11320;DHT22;5715;48.234;14.320;2022-10-16T18:35:17;16.40;99.90
11320;DHT22;5715;48.234;14.320;2022-10-16T18:38:05;16.40;99.90
11320;DHT22;5715;48.234;14.320;2022-10-16T18:40:52;16.30;99.90
11320;DHT22;5715;48.234;14.320;2022-10-16T18:43:40;16.20;99.90
11320;DHT22;5715;48.234;14.320;2022-10-16T18:46:28;16.10;99.90
11320;DHT22;5715;48.234;14.320;2022-10-16T18:49:15;16.10;99.90
11320;DHT22;5715;48.234;14.320;2022-10-16T18:52:03;16.00;99.90
11320;DHT22;5715;48.234;14.320;2022-10-16T18:54:55;15.90;99.90
11320;DHT22;5715;48.234;14.320;2022-10-16T18:57:43;15.80;99.90
11320;DHT22;5715;48.234;14.320;2022-10-16T19:00:31;15.80;99.90
11320;DHT22;5715;48.234;14.320;2022-10-16T19:03:19;15.70;99.90
11320;DHT22;5715;48.234;14.320;2022-10-16T19:06:10;15.80;99.90
11320;DHT22;5715;48.234;14.320;2022-10-16T19:09:01;15.70;99.90
11320;DHT22;5715;48.234;14.320;2022-10-16T19:11:49;15.60;99.90
11320;DHT22;5715;48.234;14.320;2022-10-16T19:14:41;15.50;99.90
11320;DHT22;5715;48.234;14.320;2022-10-16T19:17:29;15.40;99.90
11320;DHT22;5715;48.234;14.320;2022-10-16T19:20:17;15.30;99.90